sensor_id;sensor_type;location;lat;lon;timestamp;P1;durP1;ratioP1;P2;durP2;ratioP2
57281;SDS011;43129;52.628;10.098;2023-12-20T00:01:07;22.67;;;8.98;;
57281;SDS011;43129;52.628;10.098;2023-12-20T00:03:32;19.23;;;8.65;;
57281;SDS011;43129;52.628;10.098;2023-12-20T00:06:01;19.73;;;8.40;;
57281;SDS011;43129;52.628;10.098;2023-12-20T00:08:27;18.00;;;7.10;;
57281;SDS011;43129;52.628;10.098;2023-12-20T00:10:52;17.23;;;7.28;;
57281;SDS011;43129;52.628;10.098;2023-12-20T00:13:20;21.48;;;7.47;;
57281;SDS011;43129;52.628;10.098;2023-12-20T00:15:46;15.60;;;7.05;;
57281;SDS011;43129;52.628;10.098;2023-12-20T00:18:11;13.63;;;5.93;;
57281;SDS011;43129;52.628;10.098;2023-12-20T00:20:39;15.30;;;5.80;;
57281;SDS011;43129;52.628;10.098;2023-12-20T00:23:05;15.82;;;6.65;;
57281;SDS011;43129;52.628;10.098;2023-12-20T00:25:30;19.63;;;5.38;;
57281;SDS011;43129;52.628;10.098;2023-12-20T00:27:56;15.25;;;5.38;;
57281;SDS011;43129;52.628;10.098;2023-12-20T00:30:21;18.30;;;5.78;;
57281;SDS011;43129;52.628;10.098;2023-12-20T00:32:47;18.10;;;5.25;;
57281;SDS011;43129;52.628;10.098;2023-12-20T00:35:16;21.70;;;5.40;;
57281;SDS011;43129;52.628;10.098;2023-12-20T00:37:44;19.52;;;4.65;;
57281;SDS011;43129;52.628;10.098;2023-12-20T00:40:10;21.63;;;4.45;;
57281;SDS011;43129;52.628;10.098;2023-12-20T00:42:39;10.25;;;4.05;;
57281;SDS011;43129;52.628;10.098;2023-12-20T00:45:05;14.07;;;4.22;;
57281;SDS011;43129;52.628;10.098;2023-12-20T00:47:31;16.25;;;4.63;;
57281;SDS011;43129;52.628;10.098;2023-12-20T00:49:57;21.15;;;4.85;;
57281;SDS011;43129;52.628;10.098;2023-12-20T00:52:23;12.93;;;4.22;;
57281;SDS011;43129;52.628;10.098;2023-12-20T00:54:49;19.48;;;4.55;;
57281;SDS011;43129;52.628;10.098;2023-12-20T00:57:15;23.98;;;4.35;;
57281;SDS011;43129;52.628;10.098;2023-12-20T00:59:40;19.08;;;4.95;;
57281;SDS011;43129;52.628;10.098;2023-12-20T01:02:08;19.73;;;4.47;;
57281;SDS011;43129;52.628;10.098;2023-12-20T01:04:35;18.58;;;4.55;;
57281;SDS011;43129;52.628;10.098;2023-12-20T01:07:00;21.00;;;4.18;;
57281;SDS011;43129;52.628;10.098;2023-12-20T01:09:26;14.35;;;4.10;;
57281;SDS011;43129;52.628;10.098;2023-12-20T01:11:52;20.48;;;4.00;;
57281;SDS011;43129;52.628;10.098;2023-12-20T01:14:18;24.35;;;3.70;;
57281;SDS011;43129;52.628;10.098;2023-12-20T01:16:46;15.13;;;3.45;;
57281;SDS011;43129;52.628;10.098;2023-12-20T01:19:12;26.58;;;7.55;;
57281;SDS011;43129;52.628;10.098;2023-12-20T01:21:41;23.77;;;10.02;;
57281;SDS011;43129;52.628;10.098;2023-12-20T01:24:07;16.42;;;4.13;;
57281;SDS011;43129;52.628;10.098;2023-12-20T01:26:33;16.58;;;3.60;;
57281;SDS011;43129;52.628;10.098;2023-12-20T01:29:01;13.50;;;3.50;;
57281;SDS011;43129;52.628;10.098;2023-12-20T01:31:26;17.90;;;4.25;;
57281;SDS011;43129;52.628;10.098;2023-12-20T01:33:55;15.90;;;4.05;;
57281;SDS011;43129;52.628;10.098;2023-12-20T01:36:20;15.93;;;3.92;;
57281;SDS011;43129;52.628;10.098;2023-12-20T01:38:46;21.10;;;4.53;;
57281;SDS011;43129;52.628;10.098;2023-12-20T01:41:12;18.27;;;4.00;;
57281;SDS011;43129;52.628;10.098;2023-12-20T01:43:37;17.08;;;4.50;;
57281;SDS011;43129;52.628;10.098;2023-12-20T01:46:03;15.45;;;4.28;;
57281;SDS011;43129;52.628;10.098;2023-12-20T01:48:29;23.55;;;4.72;;
57281;SDS011;43129;52.628;10.098;2023-12-20T01:50:57;22.55;;;4.78;;
57281;SDS011;43129;52.628;10.098;2023-12-20T01:53:24;19.48;;;4.43;;
57281;SDS011;43129;52.628;10.098;2023-12-20T01:55:52;20.40;;;4.68;;
57281;SDS011;43129;52.628;10.098;2023-12-20T01:58:20;19.10;;;4.70;;
57281;SDS011;43129;52.628;10.098;2023-12-20T02:00:46;25.10;;;5.15;;
57281;SDS011;43129;52.628;10.098;2023-12-20T02:03:13;23.80;;;5.30;;
57281;SDS011;43129;52.628;10.098;2023-12-20T02:05:39;18.05;;;4.95;;
57281;SDS011;43129;52.628;10.098;2023-12-20T02:08:06;20.25;;;5.47;;
57281;SDS011;43129;52.628;10.098;2023-12-20T02:10:32;23.20;;;4.78;;
57281;SDS011;43129;52.628;10.098;2023-12-20T02:12:57;22.27;;;5.90;;
57281;SDS011;43129;52.628;10.098;2023-12-20T02:15:23;22.48;;;5.93;;
57281;SDS011;43129;52.628;10.098;2023-12-20T02:17:49;18.75;;;5.80;;
57281;SDS011;43129;52.628;10.098;2023-12-20T02:20:17;21.00;;;5.85;;
57281;SDS011;43129;52.628;10.098;2023-12-20T02:22:45;15.85;;;5.32;;
57281;SDS011;43129;52.628;10.098;2023-12-20T02:25:11;22.00;;;6.00;;
57281;SDS011;43129;52.628;10.098;2023-12-20T02:27:36;24.02;;;6.40;;
57281;SDS011;43129;52.628;10.098;2023-12-20T02:30:05;23.85;;;6.45;;
57281;SDS011;43129;52.628;10.098;2023-12-20T02:32:31;25.55;;;6.28;;
57281;SDS011;43129;52.628;10.098;2023-12-20T02:34:57;20.83;;;6.35;;
57281;SDS011;43129;52.628;10.098;2023-12-20T02:37:23;24.27;;;5.63;;
57281;SDS011;43129;52.628;10.098;2023-12-20T02:39:51;20.38;;;6.18;;
57281;SDS011;43129;52.628;10.098;2023-12-20T02:42:17;23.13;;;5.68;;
57281;SDS011;43129;52.628;10.098;2023-12-20T02:44:45;25.98;;;5.50;;
57281;SDS011;43129;52.628;10.098;2023-12-20T02:47:15;26.85;;;6.20;;
57281;SDS011;43129;52.628;10.098;2023-12-20T02:49:41;18.20;;;5.45;;
57281;SDS011;43129;52.628;10.098;2023-12-20T02:52:11;14.98;;;4.90;;
57281;SDS011;43129;52.628;10.098;2023-12-20T02:54:37;17.95;;;5.65;;
57281;SDS011;43129;52.628;10.098;2023-12-20T02:57:03;22.13;;;5.15;;
57281;SDS011;43129;52.628;10.098;2023-12-20T02:59:28;17.67;;;4.68;;
57281;SDS011;43129;52.628;10.098;2023-12-20T03:01:56;21.77;;;6.90;;
57281;SDS011;43129;52.628;10.098;2023-12-20T03:04:22;28.33;;;5.07;;
57281;SDS011;43129;52.628;10.098;2023-12-20T03:06:50;18.83;;;5.20;;
57281;SDS011;43129;52.628;10.098;2023-12-20T03:09:16;20.05;;;4.88;;
57281;SDS011;43129;52.628;10.098;2023-12-20T03:11:41;17.75;;;4.63;;
57281;SDS011;43129;52.628;10.098;2023-12-20T03:14:11;21.05;;;5.57;;
57281;SDS011;43129;52.628;10.098;2023-12-20T03:16:37;22.65;;;4.63;;
57281;SDS011;43129;52.628;10.098;2023-12-20T03:19:02;21.33;;;4.82;;
57281;SDS011;43129;52.628;10.098;2023-12-20T03:21:30;17.55;;;4.20;;
57281;SDS011;43129;52.628;10.098;2023-12-20T03:23:56;16.58;;;4.32;;
57281;SDS011;43129;52.628;10.098;2023-12-20T03:26:24;20.58;;;4.50;;
57281;SDS011;43129;52.628;10.098;2023-12-20T03:28:50;19.63;;;4.13;;
57281;SDS011;43129;52.628;10.098;2023-12-20T03:31:15;20.67;;;3.78;;
57281;SDS011;43129;52.628;10.098;2023-12-20T03:33:41;18.90;;;4.28;;
57281;SDS011;43129;52.628;10.098;2023-12-20T03:36:06;19.77;;;4.53;;
57281;SDS011;43129;52.628;10.098;2023-12-20T03:38:32;17.40;;;4.18;;
57281;SDS011;43129;52.628;10.098;2023-12-20T03:41:00;16.48;;;3.90;;
57281;SDS011;43129;52.628;10.098;2023-12-20T03:43:26;23.55;;;4.35;;
57281;SDS011;43129;52.628;10.098;2023-12-20T03:45:51;19.80;;;4.05;;
57281;SDS011;43129;52.628;10.098;2023-12-20T03:48:17;16.38;;;3.65;;
57281;SDS011;43129;52.628;10.098;2023-12-20T03:50:45;15.13;;;4.10;;
57281;SDS011;43129;52.628;10.098;2023-12-20T03:53:12;19.30;;;3.97;;
57281;SDS011;43129;52.628;10.098;2023-12-20T03:55:38;19.13;;;4.30;;
57281;SDS011;43129;52.628;10.098;2023-12-20T03:58:04;23.63;;;3.92;;
57281;SDS011;43129;52.628;10.098;2023-12-20T04:00:32;24.98;;;4.40;;
57281;SDS011;43129;52.628;10.098;2023-12-20T04:02:57;20.52;;;4.13;;
57281;SDS011;43129;52.628;10.098;2023-12-20T04:05:28;20.70;;;4.05;;
57281;SDS011;43129;52.628;10.098;2023-12-20T04:07:53;20.20;;;4.28;;
57281;SDS011;43129;52.628;10.098;2023-12-20T04:10:19;18.08;;;4.65;;
57281;SDS011;43129;52.628;10.098;2023-12-20T04:12:49;19.20;;;4.95;;
57281;SDS011;43129;52.628;10.098;2023-12-20T04:15:15;18.85;;;4.97;;
57281;SDS011;43129;52.628;10.098;2023-12-20T04:17:40;19.02;;;4.60;;
57281;SDS011;43129;52.628;10.098;2023-12-20T04:20:08;13.35;;;4.13;;
57281;SDS011;43129;52.628;10.098;2023-12-20T04:22:34;12.23;;;4.28;;
57281;SDS011;43129;52.628;10.098;2023-12-20T04:25:00;21.08;;;5.05;;
57281;SDS011;43129;52.628;10.098;2023-12-20T04:27:25;19.95;;;4.45;;
57281;SDS011;43129;52.628;10.098;2023-12-20T04:29:51;19.20;;;5.20;;
57281;SDS011;43129;52.628;10.098;2023-12-20T04:32:19;12.63;;;4.45;;
57281;SDS011;43129;52.628;10.098;2023-12-20T04:34:44;18.52;;;4.43;;
57281;SDS011;43129;52.628;10.098;2023-12-20T04:37:10;17.45;;;4.85;;
57281;SDS011;43129;52.628;10.098;2023-12-20T04:39:36;19.27;;;4.97;;
57281;SDS011;43129;52.628;10.098;2023-12-20T04:42:01;22.35;;;5.18;;
57281;SDS011;43129;52.628;10.098;2023-12-20T04:44:27;17.13;;;4.47;;
57281;SDS011;43129;52.628;10.098;2023-12-20T04:46:52;18.63;;;5.28;;
57281;SDS011;43129;52.628;10.098;2023-12-20T04:49:21;18.77;;;5.05;;
57281;SDS011;43129;52.628;10.098;2023-12-20T04:51:47;20.65;;;4.38;;
57281;SDS011;43129;52.628;10.098;2023-12-20T04:54:12;16.38;;;4.63;;
57281;SDS011;43129;52.628;10.098;2023-12-20T04:56:38;17.92;;;4.55;;
57281;SDS011;43129;52.628;10.098;2023-12-20T04:59:04;19.10;;;4.65;;
57281;SDS011;43129;52.628;10.098;2023-12-20T05:01:29;19.00;;;4.72;;
57281;SDS011;43129;52.628;10.098;2023-12-20T05:03:55;18.08;;;4.57;;
57281;SDS011;43129;52.628;10.098;2023-12-20T05:06:23;15.77;;;4.85;;
57281;SDS011;43129;52.628;10.098;2023-12-20T05:08:49;15.23;;;4.47;;
57281;SDS011;43129;52.628;10.098;2023-12-20T05:11:17;13.73;;;4.22;;
57281;SDS011;43129;52.628;10.098;2023-12-20T05:13:43;18.88;;;4.10;;
57281;SDS011;43129;52.628;10.098;2023-12-20T05:16:08;20.10;;;4.82;;
57281;SDS011;43129;52.628;10.098;2023-12-20T05:18:34;14.93;;;4.30;;
57281;SDS011;43129;52.628;10.098;2023-12-20T05:21:00;15.48;;;4.47;;
57281;SDS011;43129;52.628;10.098;2023-12-20T05:23:30;21.98;;;4.25;;
57281;SDS011;43129;52.628;10.098;2023-12-20T05:25:55;17.70;;;4.65;;
57281;SDS011;43129;52.628;10.098;2023-12-20T05:28:21;18.65;;;4.50;;
57281;SDS011;43129;52.628;10.098;2023-12-20T05:30:49;19.40;;;4.85;;
57281;SDS011;43129;52.628;10.098;2023-12-20T05:33:17;18.75;;;5.20;;
57281;SDS011;43129;52.628;10.098;2023-12-20T05:35:42;18.48;;;4.97;;
57281;SDS011;43129;52.628;10.098;2023-12-20T05:38:08;15.68;;;4.40;;
57281;SDS011;43129;52.628;10.098;2023-12-20T05:40:34;21.38;;;4.32;;
57281;SDS011;43129;52.628;10.098;2023-12-20T05:43:02;15.77;;;4.30;;
57281;SDS011;43129;52.628;10.098;2023-12-20T05:45:28;19.33;;;4.72;;
57281;SDS011;43129;52.628;10.098;2023-12-20T05:47:54;16.85;;;5.22;;
57281;SDS011;43129;52.628;10.098;2023-12-20T05:50:22;18.90;;;4.00;;
57281;SDS011;43129;52.628;10.098;2023-12-20T05:52:48;17.95;;;3.70;;
57281;SDS011;43129;52.628;10.098;2023-12-20T05:55:13;18.80;;;6.68;;
57281;SDS011;43129;52.628;10.098;2023-12-20T05:57:39;16.83;;;4.57;;
57281;SDS011;43129;52.628;10.098;2023-12-20T06:00:08;16.30;;;3.78;;
57281;SDS011;43129;52.628;10.098;2023-12-20T06:02:34;19.45;;;4.10;;
57281;SDS011;43129;52.628;10.098;2023-12-20T06:05:02;18.63;;;4.90;;
57281;SDS011;43129;52.628;10.098;2023-12-20T06:07:32;18.48;;;5.05;;
57281;SDS011;43129;52.628;10.098;2023-12-20T06:10:18;19.17;;;3.90;;
57281;SDS011;43129;52.628;10.098;2023-12-20T06:12:47;19.50;;;4.45;;
57281;SDS011;43129;52.628;10.098;2023-12-20T06:15:15;17.52;;;4.40;;
57281;SDS011;43129;52.628;10.098;2023-12-20T06:17:40;18.63;;;4.30;;
57281;SDS011;43129;52.628;10.098;2023-12-20T06:20:08;17.15;;;4.07;;
57281;SDS011;43129;52.628;10.098;2023-12-20T06:22:35;19.38;;;5.03;;
57281;SDS011;43129;52.628;10.098;2023-12-20T06:25:01;18.80;;;4.43;;
57281;SDS011;43129;52.628;10.098;2023-12-20T06:27:27;13.43;;;4.07;;
57281;SDS011;43129;52.628;10.098;2023-12-20T06:29:53;20.13;;;4.45;;
57281;SDS011;43129;52.628;10.098;2023-12-20T06:32:19;23.70;;;5.68;;
57281;SDS011;43129;52.628;10.098;2023-12-20T06:34:45;25.08;;;4.38;;
57281;SDS011;43129;52.628;10.098;2023-12-20T06:37:10;18.05;;;4.60;;
57281;SDS011;43129;52.628;10.098;2023-12-20T06:39:36;24.30;;;4.38;;
57281;SDS011;43129;52.628;10.098;2023-12-20T06:42:02;17.63;;;4.22;;
57281;SDS011;43129;52.628;10.098;2023-12-20T06:44:27;25.60;;;4.85;;
57281;SDS011;43129;52.628;10.098;2023-12-20T06:46:53;22.98;;;3.88;;
57281;SDS011;43129;52.628;10.098;2023-12-20T06:49:19;19.38;;;4.15;;
57281;SDS011;43129;52.628;10.098;2023-12-20T06:51:44;18.52;;;3.25;;
57281;SDS011;43129;52.628;10.098;2023-12-20T06:54:10;14.50;;;4.00;;
57281;SDS011;43129;52.628;10.098;2023-12-20T06:56:35;17.17;;;3.97;;
57281;SDS011;43129;52.628;10.098;2023-12-20T06:59:01;27.85;;;5.50;;
57281;SDS011;43129;52.628;10.098;2023-12-20T07:01:29;20.45;;;4.63;;
57281;SDS011;43129;52.628;10.098;2023-12-20T07:03:57;19.88;;;4.30;;
57281;SDS011;43129;52.628;10.098;2023-12-20T07:06:22;26.88;;;4.93;;
57281;SDS011;43129;52.628;10.098;2023-12-20T07:08:50;21.52;;;4.25;;
57281;SDS011;43129;52.628;10.098;2023-12-20T07:11:31;27.40;;;5.00;;
57281;SDS011;43129;52.628;10.098;2023-12-20T07:13:57;16.13;;;4.25;;
57281;SDS011;43129;52.628;10.098;2023-12-20T07:16:26;24.90;;;4.63;;
57281;SDS011;43129;52.628;10.098;2023-12-20T07:18:51;22.65;;;4.70;;
57281;SDS011;43129;52.628;10.098;2023-12-20T07:21:19;24.05;;;4.88;;
57281;SDS011;43129;52.628;10.098;2023-12-20T07:23:45;18.92;;;4.57;;
57281;SDS011;43129;52.628;10.098;2023-12-20T07:26:15;15.57;;;4.43;;
57281;SDS011;43129;52.628;10.098;2023-12-20T07:28:41;27.38;;;4.57;;
57281;SDS011;43129;52.628;10.098;2023-12-20T07:31:07;17.25;;;4.07;;
57281;SDS011;43129;52.628;10.098;2023-12-20T07:33:37;27.05;;;4.53;;
57281;SDS011;43129;52.628;10.098;2023-12-20T07:36:03;21.88;;;4.25;;
57281;SDS011;43129;52.628;10.098;2023-12-20T07:38:29;18.63;;;4.20;;
57281;SDS011;43129;52.628;10.098;2023-12-20T07:40:54;21.25;;;4.22;;
57281;SDS011;43129;52.628;10.098;2023-12-20T07:43:22;18.95;;;3.97;;
57281;SDS011;43129;52.628;10.098;2023-12-20T07:45:50;20.38;;;3.75;;
57281;SDS011;43129;52.628;10.098;2023-12-20T07:48:20;26.90;;;4.90;;
57281;SDS011;43129;52.628;10.098;2023-12-20T07:50:48;14.85;;;3.70;;
57281;SDS011;43129;52.628;10.098;2023-12-20T07:53:14;15.85;;;4.35;;
57281;SDS011;43129;52.628;10.098;2023-12-20T07:55:39;18.15;;;4.10;;
57281;SDS011;43129;52.628;10.098;2023-12-20T07:58:05;24.83;;;4.97;;
57281;SDS011;43129;52.628;10.098;2023-12-20T08:00:30;18.75;;;3.90;;
57281;SDS011;43129;52.628;10.098;2023-12-20T08:02:56;19.05;;;4.00;;
57281;SDS011;43129;52.628;10.098;2023-12-20T08:05:22;17.27;;;3.72;;
57281;SDS011;43129;52.628;10.098;2023-12-20T08:07:47;15.43;;;4.45;;
57281;SDS011;43129;52.628;10.098;2023-12-20T08:10:13;16.85;;;4.35;;
57281;SDS011;43129;52.628;10.098;2023-12-20T08:12:38;25.35;;;4.65;;
57281;SDS011;43129;52.628;10.098;2023-12-20T08:15:09;22.23;;;4.15;;
57281;SDS011;43129;52.628;10.098;2023-12-20T08:17:37;21.35;;;3.83;;
57281;SDS011;43129;52.628;10.098;2023-12-20T08:20:05;19.85;;;4.63;;
57281;SDS011;43129;52.628;10.098;2023-12-20T08:22:31;22.00;;;4.60;;
57281;SDS011;43129;52.628;10.098;2023-12-20T08:24:57;18.67;;;4.22;;
57281;SDS011;43129;52.628;10.098;2023-12-20T08:27:23;17.33;;;3.67;;
57281;SDS011;43129;52.628;10.098;2023-12-20T08:29:51;17.30;;;3.33;;
57281;SDS011;43129;52.628;10.098;2023-12-20T08:32:16;17.00;;;4.15;;
57281;SDS011;43129;52.628;10.098;2023-12-20T08:34:42;16.75;;;4.10;;
57281;SDS011;43129;52.628;10.098;2023-12-20T08:37:07;18.05;;;7.15;;
57281;SDS011;43129;52.628;10.098;2023-12-20T08:39:35;15.93;;;5.65;;
57281;SDS011;43129;52.628;10.098;2023-12-20T08:42:04;20.40;;;4.80;;
57281;SDS011;43129;52.628;10.098;2023-12-20T08:44:29;16.73;;;4.30;;
57281;SDS011;43129;52.628;10.098;2023-12-20T08:46:55;20.10;;;4.75;;
57281;SDS011;43129;52.628;10.098;2023-12-20T08:49:22;14.85;;;4.00;;
57281;SDS011;43129;52.628;10.098;2023-12-20T08:51:47;20.17;;;4.78;;
57281;SDS011;43129;52.628;10.098;2023-12-20T08:54:15;18.92;;;5.05;;
57281;SDS011;43129;52.628;10.098;2023-12-20T08:56:42;20.08;;;4.32;;
57281;SDS011;43129;52.628;10.098;2023-12-20T08:59:08;18.20;;;5.22;;
57281;SDS011;43129;52.628;10.098;2023-12-20T09:01:36;19.48;;;5.47;;
57281;SDS011;43129;52.628;10.098;2023-12-20T09:04:02;17.05;;;5.40;;
57281;SDS011;43129;52.628;10.098;2023-12-20T09:06:30;24.05;;;5.82;;
57281;SDS011;43129;52.628;10.098;2023-12-20T09:08:58;18.23;;;5.60;;
57281;SDS011;43129;52.628;10.098;2023-12-20T09:11:28;16.48;;;6.00;;
57281;SDS011;43129;52.628;10.098;2023-12-20T09:13:54;16.40;;;6.00;;
57281;SDS011;43129;52.628;10.098;2023-12-20T09:16:22;28.50;;;10.02;;
57281;SDS011;43129;52.628;10.098;2023-12-20T09:18:50;25.27;;;6.78;;
57281;SDS011;43129;52.628;10.098;2023-12-20T09:21:16;24.98;;;5.28;;
57281;SDS011;43129;52.628;10.098;2023-12-20T09:23:42;23.70;;;5.30;;
57281;SDS011;43129;52.628;10.098;2023-12-20T09:26:08;26.70;;;7.38;;
57281;SDS011;43129;52.628;10.098;2023-12-20T09:28:33;20.20;;;6.88;;
57281;SDS011;43129;52.628;10.098;2023-12-20T09:31:02;16.45;;;5.18;;
57281;SDS011;43129;52.628;10.098;2023-12-20T09:33:31;21.20;;;5.65;;
57281;SDS011;43129;52.628;10.098;2023-12-20T09:35:57;26.65;;;5.50;;
57281;SDS011;43129;52.628;10.098;2023-12-20T09:38:23;20.65;;;4.95;;
57281;SDS011;43129;52.628;10.098;2023-12-20T09:40:49;24.15;;;5.03;;
57281;SDS011;43129;52.628;10.098;2023-12-20T09:43:15;18.70;;;5.10;;
57281;SDS011;43129;52.628;10.098;2023-12-20T09:45:49;23.08;;;5.03;;
57281;SDS011;43129;52.628;10.098;2023-12-20T09:48:18;18.70;;;5.05;;
57281;SDS011;43129;52.628;10.098;2023-12-20T09:50:45;19.83;;;4.90;;
57281;SDS011;43129;52.628;10.098;2023-12-20T09:53:11;18.70;;;5.43;;
57281;SDS011;43129;52.628;10.098;2023-12-20T09:55:41;23.08;;;4.72;;
57281;SDS011;43129;52.628;10.098;2023-12-20T09:58:07;19.35;;;4.53;;
57281;SDS011;43129;52.628;10.098;2023-12-20T10:00:34;15.60;;;5.22;;
57281;SDS011;43129;52.628;10.098;2023-12-20T10:03:06;22.20;;;5.60;;
57281;SDS011;43129;52.628;10.098;2023-12-20T10:05:33;21.60;;;5.00;;
57281;SDS011;43129;52.628;10.098;2023-12-20T10:08:00;14.63;;;4.70;;
57281;SDS011;43129;52.628;10.098;2023-12-20T10:10:28;18.98;;;4.85;;
57281;SDS011;43129;52.628;10.098;2023-12-20T10:13:07;23.17;;;4.75;;
57281;SDS011;43129;52.628;10.098;2023-12-20T10:15:33;22.50;;;4.53;;
57281;SDS011;43129;52.628;10.098;2023-12-20T10:18:00;20.80;;;5.35;;
57281;SDS011;43129;52.628;10.098;2023-12-20T10:20:29;21.48;;;4.82;;
57281;SDS011;43129;52.628;10.098;2023-12-20T10:22:58;18.00;;;4.47;;
57281;SDS011;43129;52.628;10.098;2023-12-20T10:25:26;19.77;;;4.68;;
57281;SDS011;43129;52.628;10.098;2023-12-20T10:28:11;24.80;;;6.07;;
57281;SDS011;43129;52.628;10.098;2023-12-20T10:30:39;20.80;;;5.20;;
57281;SDS011;43129;52.628;10.098;2023-12-20T10:33:06;19.02;;;4.82;;
57281;SDS011;43129;52.628;10.098;2023-12-20T10:35:35;18.63;;;4.70;;
57281;SDS011;43129;52.628;10.098;2023-12-20T10:38:03;15.48;;;4.78;;
57281;SDS011;43129;52.628;10.098;2023-12-20T10:40:32;17.58;;;4.97;;
57281;SDS011;43129;52.628;10.098;2023-12-20T10:43:01;18.85;;;5.32;;
57281;SDS011;43129;52.628;10.098;2023-12-20T10:45:28;19.77;;;4.97;;
57281;SDS011;43129;52.628;10.098;2023-12-20T10:47:56;16.20;;;4.88;;
57281;SDS011;43129;52.628;10.098;2023-12-20T10:50:27;16.02;;;4.40;;
57281;SDS011;43129;52.628;10.098;2023-12-20T10:52:56;19.48;;;4.28;;
57281;SDS011;43129;52.628;10.098;2023-12-20T10:55:24;21.00;;;4.57;;
57281;SDS011;43129;52.628;10.098;2023-12-20T10:57:51;9.30;;;4.00;;
57281;SDS011;43129;52.628;10.098;2023-12-20T11:00:20;17.23;;;4.47;;
57281;SDS011;43129;52.628;10.098;2023-12-20T11:02:50;16.90;;;4.78;;
57281;SDS011;43129;52.628;10.098;2023-12-20T11:05:35;19.00;;;5.28;;
57281;SDS011;43129;52.628;10.098;2023-12-20T11:08:28;25.85;;;6.90;;
57281;SDS011;43129;52.628;10.098;2023-12-20T11:13:31;24.58;;;8.15;;
57281;SDS011;43129;52.628;10.098;2023-12-20T11:16:02;26.92;;;7.30;;
57281;SDS011;43129;52.628;10.098;2023-12-20T11:18:31;26.67;;;7.15;;
57281;SDS011;43129;52.628;10.098;2023-12-20T11:21:00;29.25;;;11.43;;
57281;SDS011;43129;52.628;10.098;2023-12-20T11:23:29;26.13;;;8.40;;
57281;SDS011;43129;52.628;10.098;2023-12-20T11:25:56;34.28;;;12.15;;
57281;SDS011;43129;52.628;10.098;2023-12-20T11:28:25;18.40;;;5.07;;
57281;SDS011;43129;52.628;10.098;2023-12-20T11:30:57;23.95;;;8.15;;
57281;SDS011;43129;52.628;10.098;2023-12-20T11:36:59;6.18;;;2.08;;
57281;SDS011;43129;52.628;10.098;2023-12-20T11:39:25;13.07;;;4.72;;
57281;SDS011;43129;52.628;10.098;2023-12-20T11:41:53;7.63;;;3.42;;
57281;SDS011;43129;52.628;10.098;2023-12-20T11:44:22;5.18;;;1.92;;
57281;SDS011;43129;52.628;10.098;2023-12-20T11:46:50;8.63;;;1.75;;
57281;SDS011;43129;52.628;10.098;2023-12-20T11:49:23;6.50;;;3.15;;
57281;SDS011;43129;52.628;10.098;2023-12-20T11:51:49;6.20;;;1.98;;
57281;SDS011;43129;52.628;10.098;2023-12-20T11:57:22;4.38;;;1.58;;
57281;SDS011;43129;52.628;10.098;2023-12-20T11:59:48;6.43;;;1.48;;
57281;SDS011;43129;52.628;10.098;2023-12-20T12:02:13;4.47;;;1.35;;
57281;SDS011;43129;52.628;10.098;2023-12-20T12:04:43;5.38;;;1.30;;
57281;SDS011;43129;52.628;10.098;2023-12-20T12:07:08;4.53;;;1.58;;
57281;SDS011;43129;52.628;10.098;2023-12-20T12:09:34;4.60;;;1.60;;
57281;SDS011;43129;52.628;10.098;2023-12-20T12:12:03;4.95;;;2.88;;
57281;SDS011;43129;52.628;10.098;2023-12-20T12:14:31;2.40;;;1.88;;
57281;SDS011;43129;52.628;10.098;2023-12-20T12:16:57;4.95;;;1.90;;
57281;SDS011;43129;52.628;10.098;2023-12-20T12:19:23;3.75;;;2.00;;
57281;SDS011;43129;52.628;10.098;2023-12-20T12:22:04;3.97;;;2.60;;
57281;SDS011;43129;52.628;10.098;2023-12-20T12:24:34;7.55;;;2.53;;
57281;SDS011;43129;52.628;10.098;2023-12-20T12:27:02;5.75;;;2.30;;
57281;SDS011;43129;52.628;10.098;2023-12-20T12:29:30;4.82;;;2.85;;
57281;SDS011;43129;52.628;10.098;2023-12-20T12:31:59;6.57;;;2.40;;
57281;SDS011;43129;52.628;10.098;2023-12-20T12:34:27;5.95;;;2.35;;
57281;SDS011;43129;52.628;10.098;2023-12-20T12:36:53;4.97;;;1.58;;
57281;SDS011;43129;52.628;10.098;2023-12-20T12:39:19;6.88;;;2.15;;
57281;SDS011;43129;52.628;10.098;2023-12-20T12:41:45;3.25;;;1.63;;
57281;SDS011;43129;52.628;10.098;2023-12-20T12:44:10;7.25;;;1.38;;
57281;SDS011;43129;52.628;10.098;2023-12-20T12:46:36;4.57;;;1.23;;
57281;SDS011;43129;52.628;10.098;2023-12-20T12:49:02;6.60;;;1.60;;
57281;SDS011;43129;52.628;10.098;2023-12-20T12:51:29;5.18;;;1.30;;
57281;SDS011;43129;52.628;10.098;2023-12-20T12:53:54;4.63;;;1.33;;
57281;SDS011;43129;52.628;10.098;2023-12-20T12:56:20;5.32;;;1.38;;
57281;SDS011;43129;52.628;10.098;2023-12-20T12:58:49;6.07;;;1.70;;
57281;SDS011;43129;52.628;10.098;2023-12-20T13:01:15;7.75;;;1.80;;
57281;SDS011;43129;52.628;10.098;2023-12-20T13:03:41;8.30;;;1.83;;
57281;SDS011;43129;52.628;10.098;2023-12-20T13:06:06;3.80;;;1.40;;
57281;SDS011;43129;52.628;10.098;2023-12-20T13:08:33;7.88;;;1.45;;
57281;SDS011;43129;52.628;10.098;2023-12-20T13:10:59;4.57;;;1.45;;
57281;SDS011;43129;52.628;10.098;2023-12-20T13:13:28;9.27;;;3.78;;
57281;SDS011;43129;52.628;10.098;2023-12-20T13:15:59;11.38;;;2.50;;
57281;SDS011;43129;52.628;10.098;2023-12-20T13:18:25;8.60;;;3.40;;
57281;SDS011;43129;52.628;10.098;2023-12-20T13:20:51;6.45;;;2.17;;
57281;SDS011;43129;52.628;10.098;2023-12-20T13:23:17;13.27;;;3.55;;
57281;SDS011;43129;52.628;10.098;2023-12-20T13:25:45;7.47;;;2.45;;
57281;SDS011;43129;52.628;10.098;2023-12-20T13:28:18;11.52;;;3.03;;
57281;SDS011;43129;52.628;10.098;2023-12-20T13:30:50;7.22;;;2.13;;
57281;SDS011;43129;52.628;10.098;2023-12-20T13:33:18;12.52;;;2.33;;
57281;SDS011;43129;52.628;10.098;2023-12-20T13:35:44;8.10;;;2.00;;
57281;SDS011;43129;52.628;10.098;2023-12-20T13:38:09;5.90;;;2.20;;
57281;SDS011;43129;52.628;10.098;2023-12-20T13:40:37;10.45;;;2.30;;
57281;SDS011;43129;52.628;10.098;2023-12-20T13:43:05;6.40;;;2.45;;
57281;SDS011;43129;52.628;10.098;2023-12-20T13:45:31;6.20;;;1.52;;
57281;SDS011;43129;52.628;10.098;2023-12-20T13:47:58;6.80;;;1.65;;
57281;SDS011;43129;52.628;10.098;2023-12-20T13:50:24;5.32;;;2.05;;
57281;SDS011;43129;52.628;10.098;2023-12-20T13:52:49;10.45;;;2.08;;
57281;SDS011;43129;52.628;10.098;2023-12-20T13:55:15;8.15;;;2.00;;
57281;SDS011;43129;52.628;10.098;2023-12-20T13:57:47;9.88;;;2.08;;
57281;SDS011;43129;52.628;10.098;2023-12-20T14:00:17;13.38;;;2.28;;
57281;SDS011;43129;52.628;10.098;2023-12-20T14:02:45;13.43;;;3.92;;
57281;SDS011;43129;52.628;10.098;2023-12-20T14:05:11;10.43;;;3.45;;
57281;SDS011;43129;52.628;10.098;2023-12-20T14:07:38;10.45;;;2.17;;
57281;SDS011;43129;52.628;10.098;2023-12-20T14:10:07;8.38;;;2.25;;
57281;SDS011;43129;52.628;10.098;2023-12-20T14:12:32;8.45;;;2.22;;
57281;SDS011;43129;52.628;10.098;2023-12-20T14:15:01;7.43;;;2.00;;
57281;SDS011;43129;52.628;10.098;2023-12-20T14:17:34;7.80;;;2.00;;
57281;SDS011;43129;52.628;10.098;2023-12-20T14:20:00;10.10;;;2.50;;
57281;SDS011;43129;52.628;10.098;2023-12-20T14:22:25;12.43;;;3.08;;
57281;SDS011;43129;52.628;10.098;2023-12-20T14:24:51;11.18;;;1.90;;
57281;SDS011;43129;52.628;10.098;2023-12-20T14:27:17;8.60;;;1.90;;
57281;SDS011;43129;52.628;10.098;2023-12-20T14:29:49;10.07;;;2.72;;
57281;SDS011;43129;52.628;10.098;2023-12-20T14:32:15;8.60;;;2.13;;